To NAV CANADA Home Page Login to a new session Search on AWWS site Feedback and Comments Disclaimer Vers la page française équivalente Tips FAQ What's new on the site To the Forecasts and Observations / NOTAM section To "File a Flight Plan" website Publications and other links Update of the User's profile FIC Telephone Numbers My Weather Data Folder Route Weather Data Regional Weather Data Local Weather Data To the Forecasts and Observations / NOTAM section
Request Generated 02/07/2016 at 17:06:26 UTC . Weather information available at that time is displayed.

METAR/TAF

EDMONTON/EDMONTON INTL/AB    

METAR CYEG 071700Z CCA 25008KT 15SM FEW180 BKN220 M05/M11 A3033 RMK
AC1CS7 AC TR HALO SLP315=
METAR CYEG 071700Z 25008KT 15SM FEW150 BKN250 M05/M11 A3033 RMK
AC1CS7 AC TR HALO SLP315=
METAR CYEG 071600Z 26008KT 15SM BKN240 M08/M13 A3034 RMK CI5 SLP321=
METAR CYEG 071500Z 26009KT 15SM FEW230 M09/M14 A3032 RMK CI1 SLP312=

TAF CYEG 071438Z 0715/0812 27008KT P6SM SCT220
BECMG 0721/0723 24005KT
FM080300 20005KT P6SM BKN120
FM080800 16005KT P6SM OVC070
RMK NXT FCST BY 071800Z=
Your time UTC time
Weather data provided by Environment Canada and NAV CANADA